Time;durP1;ratioP1;P1;durP2;ratioP2;P2;SDS_P1;SDS_P2;PMS_P1;PMS_P2;Temp;Humidity;BMP_temperature;BMP_pressure;BME280_temperature;BME280_humidity;BME280_pressure;Samples;Min_cycle;Max_cycle;Signal;HPM_P1;HPM_P2
2023/06/06 00:01:40;;;;;;;34.10;10.60;;;13.60;84.20;;;;;;5022235;28;21099;-59
2023/06/06 00:04:07;;;;;;;27.60;7.43;;;13.50;83.90;;;;;;5050692;28;20487;-59
2023/06/06 00:06:35;;;;;;;34.27;10.27;;;13.50;84.30;;;;;;5074128;28;20478;-59
2023/06/06 00:09:04;;;;;;;25.80;9.20;;;13.50;84.60;;;;;;5053810;28;20974;-59
2023/06/06 00:11:31;;;;;;;31.20;10.47;;;13.60;83.60;;;;;;5075271;28;20508;-59
2023/06/06 00:13:58;;;;;;;19.33;7.77;;;13.50;83.80;;;;;;5073871;28;21043;-59
2023/06/06 00:16:27;;;;;;;47.53;14.23;;;13.50;83.00;;;;;;5052423;28;20467;-59
2023/06/06 00:18:55;;;;;;;27.93;9.30;;;13.50;82.90;;;;;;5044719;28;20477;-60
2023/06/06 00:21:22;;;;;;;55.37;15.70;;;13.50;83.20;;;;;;5038871;28;20494;-59
2023/06/06 00:23:49;;;;;;;25.80;9.27;;;13.40;83.50;;;;;;5078786;28;20525;-59
2023/06/06 00:26:16;;;;;;;49.83;14.23;;;13.40;83.10;;;;;;5067441;28;20470;-59
2023/06/06 00:28:43;;;;;;;29.83;10.70;;;13.30;83.20;;;;;;5049832;28;20871;-59
2023/06/06 00:31:10;;;;;;;27.87;8.47;;;13.20;83.50;;;;;;5060763;28;20477;-59
2023/06/06 00:33:36;;;;;;;39.17;12.40;;;13.20;84.20;;;;;;5065807;28;20637;-59
2023/06/06 00:36:05;;;;;;;21.57;7.40;;;13.10;84.10;;;;;;5061803;28;20457;-59
2023/06/06 00:38:32;;;;;;;31.07;10.70;;;12.80;85.30;;;;;;5062666;28;20474;-59
2023/06/06 00:40:59;;;;;;;30.17;10.60;;;12.70;85.40;;;;;;5070464;28;21294;-59
2023/06/06 00:43:26;;;;;;;44.10;12.97;;;12.70;85.60;;;;;;5070121;28;20474;-59
2023/06/06 00:45:53;;;;;;;29.10;9.43;;;12.70;85.60;;;;;;5058880;28;20609;-59
2023/06/06 00:48:20;;;;;;;51.50;14.53;;;12.80;85.30;;;;;;5068314;28;20483;-58
2023/06/06 00:50:48;;;;;;;28.77;10.07;;;12.70;85.50;;;;;;5053934;28;21452;-59
2023/06/06 00:53:16;;;;;;;39.87;13.23;;;11.60;85.10;;;;;;5063804;28;20536;-59
2023/06/06 00:55:43;;;;;;;38.60;12.20;;;12.50;86.00;;;;;;5054337;28;20486;-59
2023/06/06 00:58:13;;;;;;;38.27;11.27;;;12.60;85.90;;;;;;5026443;28;20485;-59
2023/06/06 01:00:41;;;;;;;45.77;10.33;;;12.60;85.50;;;;;;5066628;28;20966;-59
2023/06/06 01:03:10;;;;;;;24.90;9.87;;;12.70;85.40;;;;;;5025784;28;20899;-59
2023/06/06 01:05:37;;;;;;;40.17;12.40;;;12.70;85.30;;;;;;5068606;28;20485;-59
2023/06/06 01:08:04;;;;;;;28.10;9.10;;;12.80;86.00;;;;;;5057978;28;20483;-59
2023/06/06 01:10:34;;;;;;;35.00;11.47;;;12.80;86.30;;;;;;5064285;28;20827;-59
2023/06/06 01:13:07;;;;;;;25.53;10.20;;;12.80;85.50;;;;;;5039043;28;20960;-58
2023/06/06 01:15:40;;;;;;;30.90;10.43;;;12.70;85.40;;;;;;5055596;28;20501;-59
2023/06/06 01:18:08;;;;;;;17.20;7.73;;;12.70;85.40;;;;;;5067668;28;20489;-59
2023/06/06 01:20:35;;;;;;;32.20;10.80;;;12.60;85.10;;;;;;5046339;28;20567;-58
2023/06/06 01:23:04;;;;;;;26.00;12.00;;;12.60;84.80;;;;;;5065372;28;20494;-59
2023/06/06 01:25:34;;;;;;;36.57;11.33;;;12.60;85.30;;;;;;5065158;28;20490;-59
2023/06/06 01:28:04;;;;;;;35.90;10.43;;;12.50;86.10;;;;;;5062726;28;20481;-58
2023/06/06 01:30:32;;;;;;;40.93;12.23;;;12.60;86.70;;;;;;5060096;28;20485;-58
2023/06/06 01:33:10;;;;;;;21.83;9.03;;;12.60;85.70;;;;;;5067870;28;20497;-59
2023/06/06 01:35:43;;;;;;;34.40;10.77;;;13.80;86.60;;;;;;5056978;28;20493;-58
2023/06/06 01:38:17;;;;;;;24.60;8.33;;;12.60;85.60;;;;;;5057815;28;20473;-59
2023/06/06 01:40:45;;;;;;;34.70;11.17;;;12.50;85.10;;;;;;5066523;28;20481;-59
2023/06/06 01:43:13;;;;;;;33.50;10.97;;;12.50;84.90;;;;;;5075011;28;20489;-58
2023/06/06 01:45:41;;;;;;;30.80;10.13;;;12.50;86.00;;;;;;5055515;28;20518;-59
2023/06/06 01:48:09;;;;;;;28.87;9.90;;;12.50;85.40;;;;;;5058759;28;20489;-59
2023/06/06 01:50:36;;;;;;;35.63;11.13;;;12.40;85.70;;;;;;5064963;28;20557;-59
2023/06/06 01:53:03;;;;;;;19.73;7.60;;;12.40;85.70;;;;;;5057937;28;20579;-59
2023/06/06 01:55:31;;;;;;;33.50;11.10;;;12.30;85.90;;;;;;5058969;28;20483;-58
2023/06/06 01:57:59;;;;;;;20.67;8.33;;;12.10;86.80;;;;;;5051837;28;20821;-58
2023/06/06 02:00:25;;;;;;;53.00;14.90;;;12.10;87.20;;;;;;5028096;28;20583;-59
2023/06/06 02:02:52;;;;;;;24.23;8.80;;;12.00;87.10;;;;;;5049842;28;20724;-59
2023/06/06 02:05:20;;;;;;;67.00;17.67;;;12.00;87.10;;;;;;5046141;28;20605;-59
2023/06/06 02:07:49;;;;;;;29.20;9.53;;;12.00;87.20;;;;;;5040436;28;20478;-59
2023/06/06 02:10:17;;;;;;;39.30;11.87;;;12.00;87.30;;;;;;5055095;28;20574;-58
2023/06/06 02:12:45;;;;;;;25.10;9.70;;;11.90;87.40;;;;;;5056915;28;20475;-58
2023/06/06 02:15:13;;;;;;;35.13;11.23;;;11.90;87.60;;;;;;5053314;28;20479;-58
2023/06/06 02:17:40;;;;;;;35.40;11.20;;;11.80;87.10;;;;;;5046068;28;20483;-58
2023/06/06 02:20:09;;;;;;;13.67;6.90;;;11.80;87.40;;;;;;5045264;28;20870;-58
2023/06/06 02:22:36;;;;;;;27.63;8.73;;;11.80;87.20;;;;;;5038423;28;20920;-59
2023/06/06 02:25:03;;;;;;;27.67;9.73;;;11.80;87.50;;;;;;5053354;28;20472;-58
2023/06/06 02:27:30;;;;;;;34.13;10.63;;;11.90;87.30;;;;;;5035051;28;20583;-58
2023/06/06 02:29:58;;;;;;;22.13;6.90;;;12.00;87.20;;;;;;5055625;28;20490;-58
2023/06/06 02:32:25;;;;;;;50.27;14.00;;;12.00;86.80;;;;;;5051219;28;20471;-59
2023/06/06 02:34:52;;;;;;;31.63;10.47;;;11.90;86.80;;;;;;5042856;28;20538;-59
2023/06/06 02:37:18;;;;;;;34.80;10.60;;;12.00;87.30;;;;;;5044142;28;20876;-59
2023/06/06 02:39:45;;;;;;;37.30;11.43;;;11.90;87.40;;;;;;5045464;28;20529;-58
2023/06/06 02:42:12;;;;;;;27.03;8.57;;;12.00;87.80;;;;;;5056011;28;20578;-58
2023/06/06 02:44:39;;;;;;;34.73;10.60;;;12.10;87.80;;;;;;5048763;28;20488;-59
2023/06/06 02:47:08;;;;;;;20.50;8.43;;;12.10;87.70;;;;;;5062884;28;20565;-59
2023/06/06 02:49:34;;;;;;;23.07;9.20;;;12.10;87.40;;;;;;5042292;28;20495;-58
2023/06/06 02:52:01;;;;;;;21.67;7.17;;;12.20;88.10;;;;;;5051434;28;20484;-58
2023/06/06 02:54:28;;;;;;;42.03;12.80;;;12.20;88.20;;;;;;5038921;28;20569;-58
2023/06/06 02:56:55;;;;;;;24.80;9.70;;;12.30;88.20;;;;;;5044331;28;20476;-58
2023/06/06 02:59:22;;;;;;;38.90;12.67;;;12.40;88.20;;;;;;5026300;28;20519;-58
2023/06/06 03:01:49;;;;;;;22.47;8.23;;;12.40;88.00;;;;;;5046555;28;20513;-59
2023/06/06 03:04:17;;;;;;;31.73;10.70;;;12.40;87.80;;;;;;5055631;28;20549;-58
2023/06/06 03:06:43;;;;;;;23.63;8.73;;;12.40;87.80;;;;;;5051516;28;20483;-58
2023/06/06 03:09:13;;;;;;;20.33;9.00;;;12.40;87.40;;;;;;5045704;28;20480;-59
2023/06/06 03:11:39;;;;;;;29.60;10.30;;;12.50;87.70;;;;;;5043260;28;20488;-59
2023/06/06 03:14:06;;;;;;;32.87;9.80;;;12.50;87.30;;;;;;5051290;28;21018;-58
2023/06/06 03:16:34;;;;;;;29.93;10.20;;;12.50;87.60;;;;;;5036837;28;20483;-59
2023/06/06 03:19:03;;;;;;;24.80;9.20;;;12.50;87.50;;;;;;5054246;28;20484;-58
2023/06/06 03:21:33;;;;;;;28.77;9.70;;;12.50;87.70;;;;;;5039762;28;20479;-58
2023/06/06 03:24:01;;;;;;;23.30;9.00;;;12.50;87.70;;;;;;5044974;28;20577;-59
2023/06/06 03:26:27;;;;;;;41.03;12.30;;;12.50;87.50;;;;;;5041697;28;20564;-59
2023/06/06 03:28:56;;;;;;;20.33;8.00;;;12.60;87.50;;;;;;5042348;28;20490;-59
2023/06/06 03:31:23;;;;;;;47.33;15.37;;;12.60;87.60;;;;;;5044488;28;20491;-59
2023/06/06 03:33:50;;;;;;;27.07;10.10;;;12.60;87.80;;;;;;5043251;28;20474;-59
2023/06/06 03:36:17;;;;;;;41.40;12.67;;;12.60;87.90;;;;;;5051663;28;20491;-59
2023/06/06 03:38:45;;;;;;;23.60;8.43;;;12.70;88.10;;;;;;5050947;28;20979;-58
2023/06/06 03:41:12;;;;;;;30.33;9.90;;;12.70;87.70;;;;;;5044162;28;20475;-59
2023/06/06 03:43:39;;;;;;;31.43;10.60;;;12.70;87.80;;;;;;5040265;28;20994;-59
2023/06/06 03:46:06;;;;;;;17.60;7.10;;;12.80;88.00;;;;;;5030651;28;21114;-58
2023/06/06 03:48:33;;;;;;;26.23;9.10;;;10.80;85.90;;;;;;5056050;28;20490;-59
2023/06/06 03:51:00;;;;;;;20.53;9.17;;;12.90;88.10;;;;;;5048488;28;20487;-58
2023/06/06 03:53:26;;;;;;;62.07;17.13;;;12.90;88.00;;;;;;5044155;28;20516;-59
2023/06/06 03:55:59;;;;;;;23.40;8.23;;;12.90;88.30;;;;;;5050231;28;20484;-59
2023/06/06 03:58:26;;;;;;;53.40;16.20;;;13.00;88.10;;;;;;5052019;28;21186;-59
2023/06/06 04:00:52;;;;;;;27.17;10.33;;;13.00;88.10;;;;;;5049208;28;20487;-59
2023/06/06 04:03:19;;;;;;;47.20;14.10;;;13.10;88.00;;;;;;5053800;28;20487;-58
2023/06/06 04:05:48;;;;;;;34.47;10.20;;;13.10;87.80;;;;;;5059369;28;20494;-58
2023/06/06 04:08:15;;;;;;;42.47;12.70;;;13.20;88.20;;;;;;5051734;28;20474;-58
2023/06/06 04:10:42;;;;;;;28.40;11.00;;;13.20;88.00;;;;;;5050005;28;21278;-58
2023/06/06 04:13:10;;;;;;;25.80;10.67;;;13.30;88.00;;;;;;5044832;28;20502;-59
2023/06/06 04:15:37;;;;;;;28.87;10.87;;;13.30;88.20;;;;;;5034000;28;20479;-59
2023/06/06 04:18:04;;;;;;;30.83;8.80;;;13.40;88.10;;;;;;5039525;28;20475;-58
2023/06/06 04:20:32;;;;;;;39.00;12.10;;;13.50;88.00;;;;;;5044850;28;20836;-59
2023/06/06 04:23:00;;;;;;;19.30;8.40;;;13.50;87.80;;;;;;5053013;28;20483;-58
2023/06/06 04:25:26;;;;;;;30.13;10.80;;;13.60;88.20;;;;;;5050495;28;20490;-59
2023/06/06 04:27:55;;;;;;;24.83;10.37;;;13.60;88.20;;;;;;5049599;28;20705;-59
2023/06/06 04:30:23;;;;;;;38.57;12.80;;;13.70;88.60;;;;;;5041091;28;20506;-59
2023/06/06 04:32:50;;;;;;;32.17;10.87;;;13.80;89.00;;;;;;5054045;28;20487;-59
2023/06/06 04:35:18;;;;;;;44.33;14.93;;;13.80;88.80;;;;;;5054124;28;20483;-58
2023/06/06 04:37:47;;;;;;;30.87;11.70;;;13.90;89.00;;;;;;5046565;28;20578;-59
2023/06/06 04:40:15;;;;;;;40.50;12.60;;;14.00;89.50;;;;;;5045449;28;20981;-59
2023/06/06 04:42:42;;;;;;;35.07;12.90;;;14.00;90.00;;;;;;5054714;28;20530;-58
2023/06/06 04:45:10;;;;;;;30.47;11.67;;;14.10;90.00;;;;;;5051305;28;20988;-59
2023/06/06 04:47:44;;;;;;;36.03;11.50;;;14.20;89.90;;;;;;5053170;28;20490;-58
2023/06/06 04:50:11;;;;;;;27.07;11.07;;;14.30;90.10;;;;;;5059497;28;20738;-58
2023/06/06 04:52:38;;;;;;;36.40;12.60;;;14.30;90.00;;;;;;5038598;28;20482;-58
2023/06/06 04:55:07;;;;;;;25.70;10.10;;;14.50;90.10;;;;;;5048251;28;20776;-59
2023/06/06 04:57:34;;;;;;;31.20;11.10;;;14.50;90.20;;;;;;5047706;28;20475;-59
2023/06/06 05:00:01;;;;;;;30.87;8.30;;;14.60;90.40;;;;;;5045372;28;20517;-59
2023/06/06 05:02:28;;;;;;;48.63;16.40;;;14.80;90.10;;;;;;5040949;28;20627;-59
2023/06/06 05:04:58;;;;;;;26.93;11.13;;;14.90;90.50;;;;;;5049139;28;20476;-58
2023/06/06 05:07:25;;;;;;;44.03;13.63;;;15.10;90.10;;;;;;5070176;28;20488;-59
2023/06/06 05:09:52;;;;;;;24.17;9.50;;;15.20;89.90;;;;;;5041185;28;20873;-59
2023/06/06 05:12:19;;;;;;;55.33;17.43;;;15.20;90.10;;;;;;5049298;28;21183;-58
2023/06/06 05:14:46;;;;;;;31.67;11.47;;;15.20;90.50;;;;;;5048228;28;20616;-58
2023/06/06 05:17:15;;;;;;;20.47;9.50;;;15.30;90.00;;;;;;5050314;28;20477;-59
2023/06/06 05:19:42;;;;;;;30.97;12.10;;;15.30;90.60;;;;;;5063172;28;20479;-59
2023/06/06 05:22:10;;;;;;;26.33;9.03;;;15.50;90.40;;;;;;5033972;28;20483;-60
2023/06/06 05:24:37;;;;;;;35.77;13.20;;;15.60;90.20;;;;;;5053459;28;20480;-59
2023/06/06 05:27:05;;;;;;;23.00;11.40;;;15.70;90.00;;;;;;5031848;28;20492;-59
2023/06/06 05:29:31;;;;;;;35.90;12.50;;;15.80;90.80;;;;;;5056054;28;21321;-59
2023/06/06 05:31:58;;;;;;;26.83;11.27;;;15.80;90.90;;;;;;5049205;28;20873;-59
2023/06/06 05:34:25;;;;;;;42.40;14.73;;;15.90;90.50;;;;;;5049521;28;20579;-59
2023/06/06 05:36:52;;;;;;;33.37;11.13;;;16.00;90.40;;;;;;5041647;28;20491;-59
2023/06/06 05:39:22;;;;;;;49.60;17.30;;;16.10;90.10;;;;;;5046763;28;20468;-59
2023/06/06 05:41:50;;;;;;;32.10;12.60;;;16.20;90.70;;;;;;5056225;28;21484;-59
2023/06/06 05:44:17;;;;;;;44.93;14.17;;;16.20;90.30;;;;;;5052537;28;20984;-59
2023/06/06 05:46:47;;;;;;;26.37;11.90;;;16.30;90.50;;;;;;5047779;28;20728;-59
2023/06/06 05:49:14;;;;;;;35.07;13.17;;;16.40;90.50;;;;;;5023123;28;20476;-59
2023/06/06 05:51:41;;;;;;;36.77;14.43;;;16.50;90.50;;;;;;5044334;28;20499;-59
2023/06/06 05:54:08;;;;;;;22.93;10.90;;;16.60;90.60;;;;;;5042367;28;20490;-59
2023/06/06 05:56:36;;;;;;;30.60;12.13;;;16.70;90.70;;;;;;5033654;28;20483;-58
2023/06/06 05:59:03;;;;;;;15.40;8.90;;;16.90;90.90;;;;;;5029577;28;20482;-58
2023/06/06 06:01:30;;;;;;;36.97;14.23;;;17.00;90.90;;;;;;5054857;28;20499;-59
2023/06/06 06:03:57;;;;;;;22.53;10.20;;;;;;;;;;5044135;28;20488;-59
2023/06/06 06:06:25;;;;;;;36.37;14.90;;;17.30;90.70;;;;;;5039731;28;21117;-59
2023/06/06 06:08:51;;;;;;;27.23;12.43;;;17.30;90.40;;;;;;5035558;28;20881;-59
2023/06/06 06:11:19;;;;;;;38.20;16.07;;;17.50;90.80;;;;;;5043980;28;20471;-59
2023/06/06 06:13:47;;;;;;;26.53;11.17;;;17.60;90.80;;;;;;5045648;28;20885;-59
2023/06/06 06:16:14;;;;;;;34.93;15.30;;;17.70;90.30;;;;;;5036660;28;20818;-59
2023/06/06 06:18:41;;;;;;;21.03;11.20;;;17.90;90.40;;;;;;5036085;28;20490;-58
2023/06/06 06:21:40;;;;;;;22.47;10.00;;;18.00;90.40;;;;;;5049046;28;20483;-59
2023/06/06 06:24:08;;;;;;;20.00;9.33;;;18.00;90.40;;;;;;5039916;28;20519;-59
2023/06/06 06:26:34;;;;;;;21.20;10.30;;;18.10;90.30;;;;;;5039720;28;20468;-58
2023/06/06 06:29:03;;;;;;;27.40;10.37;;;18.10;90.80;;;;;;5042902;28;20483;-58
2023/06/06 06:31:30;;;;;;;31.97;12.90;;;18.10;90.50;;;;;;5040977;28;20988;-59
2023/06/06 06:33:56;;;;;;;22.73;10.60;;;18.20;90.90;;;;;;5054117;28;20480;-59
2023/06/06 06:36:24;;;;;;;40.63;15.70;;;18.10;90.70;;;;;;5054167;28;20472;-59
2023/06/06 06:38:50;;;;;;;26.80;12.73;;;18.20;91.10;;;;;;5037863;28;20491;-59
2023/06/06 06:41:17;;;;;;;38.17;16.50;;;18.20;91.00;;;;;;5036671;28;20483;-59
2023/06/06 06:43:44;;;;;;;32.50;14.03;;;18.30;90.80;;;;;;5025156;28;20506;-59
2023/06/06 06:46:12;;;;;;;33.13;12.47;;;18.50;91.20;;;;;;5036529;28;20480;-59
2023/06/06 06:48:40;;;;;;;28.80;12.60;;;18.60;91.20;;;;;;5042059;28;21029;-59
2023/06/06 06:51:07;;;;;;;15.67;9.70;;;18.70;91.60;;;;;;5049657;28;20475;-59
2023/06/06 06:53:38;;;;;;;25.60;10.90;;;18.90;91.40;;;;;;5028642;28;20484;-59
2023/06/06 06:56:05;;;;;;;16.20;9.47;;;19.00;91.10;;;;;;5050993;28;20487;-59
2023/06/06 06:58:35;;;;;;;24.87;11.33;;;19.10;90.90;;;;;;5037516;28;20484;-59
2023/06/06 07:01:02;;;;;;;19.47;10.07;;;19.40;91.00;;;;;;5043031;28;20484;-59
2023/06/06 07:03:34;;;;;;;37.97;15.80;;;19.50;90.80;;;;;;5055595;28;20475;-59
2023/06/06 07:06:02;;;;;;;32.53;9.50;;;19.70;90.60;;;;;;5034783;28;21064;-59
2023/06/06 07:08:30;;;;;;;23.00;11.10;;;19.90;90.80;;;;;;5048627;28;20547;-59
2023/06/06 07:10:56;;;;;;;20.03;11.63;;;20.00;90.50;;;;;;5042959;28;20527;-59
2023/06/06 07:13:23;;;;;;;29.17;13.50;;;20.30;90.90;;;;;;5055131;28;20491;-59
2023/06/06 07:15:50;;;;;;;21.43;10.83;;;20.60;90.80;;;;;;5039613;28;21305;-59
2023/06/06 07:18:17;;;;;;;29.90;13.67;;;20.80;90.00;;;;;;5064462;28;20839;-59
2023/06/06 07:20:45;;;;;;;24.43;11.63;;;21.30;90.00;;;;;;5051658;28;20478;-59
2023/06/06 07:23:12;;;;;;;28.73;11.67;;;21.60;88.90;;;;;;5045172;28;20560;-59
2023/06/06 07:25:40;;;;;;;22.17;11.13;;;21.80;87.20;;;;;;5043539;28;20490;-60
2023/06/06 07:28:07;;;;;;;15.73;7.37;;;22.00;86.10;;;;;;5043603;28;20494;-59
2023/06/06 07:30:35;;;;;;;18.90;10.37;;;22.00;84.30;;;;;;5036874;28;20490;-59
2023/06/06 07:33:02;;;;;;;20.10;10.20;;;22.00;84.50;;;;;;5037646;28;20475;-59
2023/06/06 07:35:32;;;;;;;29.17;12.30;;;22.20;84.40;;;;;;5042181;28;20973;-59
2023/06/06 07:38:02;;;;;;;20.83;10.80;;;22.20;84.80;;;;;;5036449;28;20477;-59
2023/06/06 07:40:28;;;;;;;21.47;11.60;;;22.10;83.00;;;;;;5032240;28;20692;-59
2023/06/06 07:42:57;;;;;;;24.53;9.73;;;22.10;83.40;;;;;;5050093;28;21023;-60
2023/06/06 07:45:24;;;;;;;30.47;13.83;;;22.20;83.60;;;;;;5053227;28;20467;-60
2023/06/06 07:47:51;;;;;;;16.37;9.07;;;22.20;83.40;;;;;;5026851;28;20480;-59
2023/06/06 07:50:18;;;;;;;23.30;10.13;;;22.50;83.10;;;;;;5037998;28;20486;-60
2023/06/06 07:52:46;;;;;;;23.53;9.20;;;22.70;84.40;;;;;;5037662;28;20477;-60
2023/06/06 07:55:16;;;;;;;16.47;9.37;;;23.00;84.40;;;;;;5040570;28;20494;-60
2023/06/06 07:57:45;;;;;;;16.33;8.80;;;23.60;84.60;;;;;;5055782;28;20481;-59
2023/06/06 08:00:13;;;;;;;21.17;10.13;;;23.90;83.00;;;;;;5041772;28;21184;-60
2023/06/06 08:02:40;;;;;;;19.03;10.50;;;24.20;77.80;;;;;;5048607;28;20841;-60
2023/06/06 08:05:08;;;;;;;15.00;8.80;;;24.40;81.20;;;;;;5037122;28;20484;-60
2023/06/06 08:07:35;;;;;;;12.77;7.90;;;24.70;80.20;;;;;;5036134;28;20495;-60
2023/06/06 08:10:02;;;;;;;10.60;7.23;;;24.60;80.10;;;;;;5042773;28;20485;-59
2023/06/06 08:12:30;;;;;;;24.83;12.60;;;25.30;78.80;;;;;;5039389;28;20478;-60
2023/06/06 08:14:57;;;;;;;12.53;7.70;;;25.60;76.50;;;;;;5046332;28;20482;-60
2023/06/06 08:17:24;;;;;;;17.47;10.53;;;25.70;73.60;;;;;;5050114;28;20474;-60
2023/06/06 08:19:50;;;;;;;16.17;8.63;;;25.70;71.80;;;;;;5042424;28;20493;-60
2023/06/06 08:22:17;;;;;;;5.27;4.87;;;25.70;75.30;;;;;;5046292;28;20490;-60
2023/06/06 08:24:44;;;;;;;16.80;8.83;;;25.90;71.00;;;;;;5038064;28;21221;-60
2023/06/06 08:27:11;;;;;;;15.27;9.07;;;25.90;68.60;;;;;;5055329;28;20489;-60
2023/06/06 08:29:39;;;;;;;12.77;7.97;;;26.00;69.20;;;;;;5045454;28;20474;-59
2023/06/06 08:32:08;;;;;;;23.40;6.93;;;26.20;73.30;;;;;;5039479;28;20490;-59
2023/06/06 08:34:35;;;;;;;17.40;9.47;;;26.00;70.00;;;;;;5042006;28;20493;-59
2023/06/06 08:37:03;;;;;;;13.43;7.57;;;26.10;67.40;;;;;;5053500;28;20485;-59
2023/06/06 08:39:29;;;;;;;17.57;8.17;;;25.90;68.10;;;;;;5052689;28;20841;-59
2023/06/06 08:41:57;;;;;;;10.33;6.53;;;26.00;67.80;;;;;;5050022;28;20483;-59
2023/06/06 08:44:25;;;;;;;25.47;13.23;;;26.10;68.80;;;;;;5041600;28;20476;-59
2023/06/06 08:46:54;;;;;;;24.87;7.90;;;26.20;66.10;;;;;;5053105;28;20512;-59
2023/06/06 08:49:22;;;;;;;30.40;13.53;;;26.40;68.90;;;;;;5045105;28;20469;-59
2023/06/06 08:51:51;;;;;;;20.43;8.70;;;26.60;67.40;;;;;;5057325;28;20478;-59
2023/06/06 08:54:19;;;;;;;25.63;12.47;;;26.60;64.40;;;;;;5033970;28;20470;-59
2023/06/06 08:56:46;;;;;;;18.03;8.43;;;26.20;65.60;;;;;;5029738;28;20486;-59
2023/06/06 08:59:14;;;;;;;15.37;8.87;;;26.90;68.30;;;;;;5049998;28;20500;-59
2023/06/06 09:01:42;;;;;;;19.00;7.60;;;27.00;66.10;;;;;;5053058;28;20884;-59
2023/06/06 09:04:13;;;;;;;13.50;8.00;;;27.00;64.60;;;;;;5045623;28;20524;-60
2023/06/06 09:06:43;;;;;;;15.90;8.63;;;27.20;65.60;;;;;;5048600;28;20510;-60
2023/06/06 09:09:11;;;;;;;11.17;7.23;;;27.50;65.80;;;;;;5046805;28;21062;-60
2023/06/06 09:11:39;;;;;;;13.20;7.97;;;27.50;59.70;;;;;;5051064;28;20936;-60
2023/06/06 09:14:06;;;;;;;12.93;7.50;;;27.40;60.00;;;;;;5039439;28;20479;-60
2023/06/06 09:16:33;;;;;;;12.13;7.20;;;27.60;63.00;;;;;;5049811;28;20486;-60
2023/06/06 09:19:02;;;;;;;11.93;7.30;;;27.70;62.20;;;;;;5039118;28;20476;-60
2023/06/06 09:21:33;;;;;;;16.67;9.80;;;27.80;64.00;;;;;;5039648;28;20496;-60
2023/06/06 09:23:59;;;;;;;11.33;7.60;;;28.00;65.20;;;;;;5035206;28;20471;-61
2023/06/06 09:26:28;;;;;;;28.03;12.07;;;27.90;62.80;;;;;;5041349;28;20916;-60
2023/06/06 09:28:56;;;;;;;17.40;7.50;;;27.80;59.10;;;;;;5049537;28;20489;-60
2023/06/06 09:31:27;;;;;;;21.93;11.30;;;27.90;62.90;;;;;;5026848;28;20519;-60
2023/06/06 09:33:55;;;;;;;19.90;9.57;;;28.10;62.30;;;;;;5057969;28;21079;-60
2023/06/06 09:36:23;;;;;;;26.83;12.23;;;28.10;63.60;;;;;;5032447;28;20490;-60
2023/06/06 09:38:53;;;;;;;11.97;7.83;;;28.20;61.50;;;;;;5061209;28;20580;-60
2023/06/06 09:41:21;;;;;;;21.80;11.77;;;27.80;57.10;;;;;;5034890;28;20470;-60
2023/06/06 09:43:48;;;;;;;16.30;9.27;;;27.30;58.60;;;;;;5044064;28;21249;-60
2023/06/06 09:46:18;;;;;;;19.57;10.43;;;27.30;62.10;;;;;;5044439;28;20497;-60
2023/06/06 09:48:56;;;;;;;22.63;9.30;;;27.20;61.90;;;;;;5037587;28;20485;-61
2023/06/06 09:51:23;;;;;;;23.60;12.13;;;27.20;60.50;;;;;;5062233;28;20805;-60
2023/06/06 09:53:55;;;;;;;13.13;8.63;;;27.60;62.50;;;;;;5039095;28;20567;-60
2023/06/06 09:56:24;;;;;;;25.90;14.23;;;27.80;62.70;;;;;;5031764;28;20864;-60
2023/06/06 09:58:55;;;;;;;18.60;8.67;;;27.70;63.00;;;;;;5050107;28;20490;-60
2023/06/06 10:01:26;;;;;;;26.57;10.87;;;27.90;63.50;;;;;;5042701;28;20524;-60
2023/06/06 10:03:56;;;;;;;12.67;8.80;;;28.00;62.40;;;;;;5048295;28;20466;-60
2023/06/06 10:06:23;;;;;;;20.93;12.40;;;28.20;64.50;;;;;;5051957;28;20490;-60
2023/06/06 10:08:53;;;;;;;15.83;7.63;;;28.40;63.40;;;;;;5046595;28;20917;-60
2023/06/06 10:11:21;;;;;;;20.80;12.60;;;28.50;59.30;;;;;;5041501;28;20585;-60
2023/06/06 10:13:49;;;;;;;16.47;9.83;;;28.50;61.00;;;;;;5035955;28;20513;-61
2023/06/06 10:16:17;;;;;;;23.17;11.20;;;28.80;61.40;;;;;;5030962;28;20799;-60
2023/06/06 10:18:45;;;;;;;17.63;8.10;;;28.80;59.10;;;;;;5038031;28;20681;-60
2023/06/06 10:21:13;;;;;;;16.73;9.10;;;28.60;61.30;;;;;;5016789;28;20540;-60
2023/06/06 10:23:40;;;;;;;15.77;9.33;;;28.50;60.00;;;;;;5026407;28;20482;-60
2023/06/06 10:26:15;;;;;;;13.13;8.37;;;28.70;63.80;;;;;;5050554;28;20555;-61
2023/06/06 10:28:54;;;;;;;12.03;8.07;;;28.70;59.80;;;;;;5045081;28;20490;-61
2023/06/06 10:31:30;;;;;;;25.47;12.63;;;28.70;61.70;;;;;;5037634;28;20908;-60
2023/06/06 10:34:01;;;;;;;21.90;8.40;;;28.80;61.20;;;;;;5045199;28;20490;-60
2023/06/06 10:36:40;;;;;;;17.57;9.53;;;28.90;62.70;;;;;;5056306;28;20660;-60
2023/06/06 10:39:16;;;;;;;18.30;7.23;;;29.00;59.20;;;;;;5041057;28;20497;-61
2023/06/06 10:41:50;;;;;;;13.27;8.87;;;29.10;59.80;;;;;;5040029;28;20486;-60
2023/06/06 10:44:20;;;;;;;19.27;11.27;;;29.10;59.60;;;;;;5047934;28;20510;-60
2023/06/06 10:46:49;;;;;;;13.23;7.60;;;29.20;62.10;;;;;;5042840;28;20502;-61
2023/06/06 10:49:16;;;;;;;17.27;10.73;;;29.30;59.50;;;;;;5052446;28;20486;-60
2023/06/06 10:51:43;;;;;;;13.83;9.23;;;29.40;60.00;;;;;;5049893;28;20497;-60
2023/06/06 10:54:17;;;;;;;12.57;6.93;;;29.50;60.50;;;;;;5044232;28;20486;-60
2023/06/06 10:56:48;;;;;;;15.93;9.30;;;29.40;58.70;;;;;;5046065;28;20471;-60
2023/06/06 10:59:16;;;;;;;15.70;9.57;;;29.50;58.40;;;;;;5039672;28;20486;-61
2023/06/06 11:01:45;;;;;;;15.50;10.20;;;29.40;58.00;;;;;;5048296;28;20909;-60
2023/06/06 11:04:19;;;;;;;16.30;10.07;;;29.30;57.40;;;;;;5026109;28;20527;-61
2023/06/06 11:06:46;;;;;;;15.53;9.10;;;28.80;58.90;;;;;;5050692;28;20479;-61
2023/06/06 11:09:23;;;;;;;16.20;9.33;;;28.30;55.00;;;;;;5040642;28;21027;-60
2023/06/06 11:11:51;;;;;;;11.60;6.87;;;28.60;60.30;;;;;;5048232;28;20490;-61
2023/06/06 11:14:22;;;;;;;13.20;8.23;;;28.80;59.70;;;;;;5044129;28;20485;-60
2023/06/06 11:17:02;;;;;;;18.17;9.63;;;28.80;61.00;;;;;;5045393;28;20926;-60
2023/06/06 11:19:37;;;;;;;22.77;11.30;;;28.70;53.90;;;;;;5035267;28;20841;-60
2023/06/06 11:22:04;;;;;;;11.57;5.93;;;28.80;57.20;;;;;;5045334;28;20579;-60
2023/06/06 11:24:36;;;;;;;17.20;8.80;;;29.00;57.30;;;;;;5037871;28;20481;-60
2023/06/06 11:27:04;;;;;;;8.73;6.77;;;29.20;56.00;;;;;;5040256;28;21057;-60
2023/06/06 11:29:32;;;;;;;17.90;8.83;;;29.40;56.00;;;;;;5053055;28;20516;-60
2023/06/06 11:32:00;;;;;;;13.40;7.73;;;29.50;56.00;;;;;;5054693;28;20479;-60
2023/06/06 11:34:27;;;;;;;23.27;13.10;;;29.50;56.60;;;;;;5032688;28;20516;-60
2023/06/06 11:36:56;;;;;;;12.20;8.37;;;29.40;55.60;;;;;;5044181;28;20483;-61
2023/06/06 11:39:28;;;;;;;23.23;12.50;;;29.20;53.80;;;;;;5028253;28;20486;-61
2023/06/06 11:41:56;;;;;;;16.33;8.60;;;28.90;55.30;;;;;;5050158;28;20577;-61
2023/06/06 11:44:32;;;;;;;19.43;10.13;;;29.20;57.10;;;;;;5028332;28;20478;-60
2023/06/06 11:47:03;;;;;;;11.33;7.23;;;29.40;56.30;;;;;;5026848;28;21045;-61
2023/06/06 11:49:41;;;;;;;15.73;7.53;;;29.70;57.20;;;;;;5060420;28;20482;-61
2023/06/06 11:52:08;;;;;;;10.90;9.00;;;29.70;52.90;;;;;;5038988;28;21202;-61
2023/06/06 11:54:36;;;;;;;11.00;8.00;;;30.00;55.60;;;;;;5046387;28;20460;-61
2023/06/06 11:57:05;;;;;;;9.67;6.17;;;30.00;54.50;;;;;;5048995;28;20481;-61
2023/06/06 11:59:34;;;;;;;15.97;8.40;;;30.20;54.70;;;;;;5032472;28;20877;-60
2023/06/06 12:02:02;;;;;;;13.20;8.63;;;30.50;52.70;;;;;;5044102;28;20479;-61
2023/06/06 12:04:29;;;;;;;11.33;8.23;;;30.50;55.00;;;;;;5050581;28;20489;-61
2023/06/06 12:07:00;;;;;;;12.20;7.90;;;30.60;53.20;;;;;;5056230;28;20475;-61
2023/06/06 12:09:27;;;;;;;21.43;11.40;;;30.20;52.10;;;;;;5058329;28;20861;-60
2023/06/06 12:11:56;;;;;;;9.17;7.87;;;30.20;53.50;;;;;;5047210;28;20484;-61
2023/06/06 12:14:24;;;;;;;6.07;5.17;;;30.10;53.80;;;;;;5044773;28;20499;-60
2023/06/06 12:16:51;;;;;;;8.90;6.60;;;29.90;56.80;;;;;;5060140;28;20921;-61
2023/06/06 12:19:20;;;;;;;12.33;8.60;;;29.90;56.70;;;;;;5033269;28;20482;-61
2023/06/06 12:21:49;;;;;;;13.43;7.10;;;29.80;55.70;;;;;;5049040;28;20465;-60
2023/06/06 12:24:17;;;;;;;16.43;8.77;;;29.40;56.60;;;;;;5065658;28;20888;-60
2023/06/06 12:26:50;;;;;;;7.77;6.30;;;29.40;57.20;;;;;;5050120;28;20482;-60
2023/06/06 12:29:18;;;;;;;14.53;9.70;;;29.30;56.60;;;;;;5053386;28;20565;-60
2023/06/06 12:31:45;;;;;;;8.67;6.87;;;29.10;56.50;;;;;;5057678;28;20485;-60
2023/06/06 12:34:13;;;;;;;10.77;7.57;;;29.10;59.50;;;;;;5051326;28;20494;-60
2023/06/06 12:36:42;;;;;;;9.67;6.47;;;29.10;58.50;;;;;;5053638;28;20487;-60
2023/06/06 12:39:12;;;;;;;9.47;6.53;;;29.00;56.70;;;;;;5053557;28;20501;-61